sensor_id;sensor_type;location;lat;lon;timestamp;temperature;humidity
3818;DHT22;1924;48.078;11.516;2023-08-08T00:01:08;12.70;99.90
3818;DHT22;1924;48.078;11.516;2023-08-08T00:03:37;12.70;99.90
3818;DHT22;1924;48.078;11.516;2023-08-08T00:06:04;12.80;99.90
3818;DHT22;1924;48.078;11.516;2023-08-08T00:08:31;12.80;99.90
3818;DHT22;1924;48.078;11.516;2023-08-08T00:10:57;12.80;99.90
3818;DHT22;1924;48.078;11.516;2023-08-08T00:13:24;12.80;99.90
3818;DHT22;1924;48.078;11.516;2023-08-08T00:15:51;12.80;99.90
3818;DHT22;1924;48.078;11.516;2023-08-08T00:18:18;12.80;99.90
3818;DHT22;1924;48.078;11.516;2023-08-08T00:20:49;12.90;99.90
3818;DHT22;1924;48.078;11.516;2023-08-08T00:23:16;13.00;99.90
3818;DHT22;1924;48.078;11.516;2023-08-08T00:25:42;13.00;99.90
3818;DHT22;1924;48.078;11.516;2023-08-08T00:28:09;13.00;99.90
3818;DHT22;1924;48.078;11.516;2023-08-08T00:30:36;13.00;99.90
3818;DHT22;1924;48.078;11.516;2023-08-08T00:33:03;13.00;99.90
3818;DHT22;1924;48.078;11.516;2023-08-08T00:35:30;13.10;99.90
3818;DHT22;1924;48.078;11.516;2023-08-08T00:37:58;13.10;99.90
3818;DHT22;1924;48.078;11.516;2023-08-08T00:40:25;13.10;99.90
3818;DHT22;1924;48.078;11.516;2023-08-08T04:02:38;12.40;99.90
3818;DHT22;1924;48.078;11.516;2023-08-08T04:05:05;12.40;99.90
3818;DHT22;1924;48.078;11.516;2023-08-08T04:07:32;12.50;99.90
3818;DHT22;1924;48.078;11.516;2023-08-08T04:09:59;12.40;99.90
3818;DHT22;1924;48.078;11.516;2023-08-08T04:12:26;12.50;99.90
3818;DHT22;1924;48.078;11.516;2023-08-08T04:14:52;12.50;99.90
3818;DHT22;1924;48.078;11.516;2023-08-08T04:17:19;12.50;99.90
3818;DHT22;1924;48.078;11.516;2023-08-08T04:19:47;12.60;99.90
3818;DHT22;1924;48.078;11.516;2023-08-08T04:22:14;12.60;99.90
3818;DHT22;1924;48.078;11.516;2023-08-08T04:24:43;12.60;99.90
3818;DHT22;1924;48.078;11.516;2023-08-08T04:27:09;12.60;99.90
3818;DHT22;1924;48.078;11.516;2023-08-08T04:29:36;12.60;99.90
3818;DHT22;1924;48.078;11.516;2023-08-08T04:32:03;12.60;99.90
3818;DHT22;1924;48.078;11.516;2023-08-08T04:34:30;12.60;99.90
3818;DHT22;1924;48.078;11.516;2023-08-08T04:36:58;12.70;99.90
3818;DHT22;1924;48.078;11.516;2023-08-08T04:39:25;12.70;99.90
3818;DHT22;1924;48.078;11.516;2023-08-08T04:41:51;12.70;99.90
3818;DHT22;1924;48.078;11.516;2023-08-08T04:44:18;12.70;99.90
3818;DHT22;1924;48.078;11.516;2023-08-08T04:46:45;12.70;99.90
3818;DHT22;1924;48.078;11.516;2023-08-08T04:49:12;12.80;99.90
3818;DHT22;1924;48.078;11.516;2023-08-08T04:51:39;12.80;99.90
3818;DHT22;1924;48.078;11.516;2023-08-08T04:54:07;12.80;99.90
3818;DHT22;1924;48.078;11.516;2023-08-08T04:56:33;12.80;99.90
3818;DHT22;1924;48.078;11.516;2023-08-08T04:59:00;12.90;99.90
3818;DHT22;1924;48.078;11.516;2023-08-08T05:01:27;12.80;99.90
3818;DHT22;1924;48.078;11.516;2023-08-08T05:03:54;12.90;99.90
3818;DHT22;1924;48.078;11.516;2023-08-08T05:06:21;12.90;99.90
3818;DHT22;1924;48.078;11.516;2023-08-08T05:08:49;13.00;99.90
3818;DHT22;1924;48.078;11.516;2023-08-08T05:11:18;13.00;99.90
3818;DHT22;1924;48.078;11.516;2023-08-08T05:13:44;13.00;99.90
3818;DHT22;1924;48.078;11.516;2023-08-08T05:16:11;13.00;99.90
3818;DHT22;1924;48.078;11.516;2023-08-08T05:18:38;13.00;99.90
3818;DHT22;1924;48.078;11.516;2023-08-08T05:21:04;13.10;99.90
3818;DHT22;1924;48.078;11.516;2023-08-08T05:23:31;13.10;99.90
3818;DHT22;1924;48.078;11.516;2023-08-08T05:25:58;13.10;99.90
3818;DHT22;1924;48.078;11.516;2023-08-08T05:28:26;13.20;99.90
3818;DHT22;1924;48.078;11.516;2023-08-08T05:30:53;13.20;99.90
3818;DHT22;1924;48.078;11.516;2023-08-08T05:33:19;13.20;99.90
3818;DHT22;1924;48.078;11.516;2023-08-08T05:35:46;13.30;99.90
3818;DHT22;1924;48.078;11.516;2023-08-08T05:38:13;13.40;99.90
3818;DHT22;1924;48.078;11.516;2023-08-08T05:40:40;13.40;99.90
3818;DHT22;1924;48.078;11.516;2023-08-08T05:43:07;13.50;99.90
3818;DHT22;1924;48.078;11.516;2023-08-08T05:45:36;13.60;99.90
3818;DHT22;1924;48.078;11.516;2023-08-08T05:48:03;13.60;99.90
3818;DHT22;1924;48.078;11.516;2023-08-08T05:50:29;13.70;99.90
3818;DHT22;1924;48.078;11.516;2023-08-08T05:52:56;13.80;99.90
3818;DHT22;1924;48.078;11.516;2023-08-08T05:55:23;13.80;99.90
3818;DHT22;1924;48.078;11.516;2023-08-08T05:57:50;13.70;99.90
3818;DHT22;1924;48.078;11.516;2023-08-08T06:00:17;13.60;99.90
3818;DHT22;1924;48.078;11.516;2023-08-08T06:02:45;13.60;99.90
3818;DHT22;1924;48.078;11.516;2023-08-08T06:05:12;13.60;99.90
3818;DHT22;1924;48.078;11.516;2023-08-08T06:07:39;13.50;99.90
3818;DHT22;1924;48.078;11.516;2023-08-08T06:10:06;13.50;99.90
3818;DHT22;1924;48.078;11.516;2023-08-08T06:12:34;13.50;99.90
3818;DHT22;1924;48.078;11.516;2023-08-08T06:15:01;13.90;99.90
3818;DHT22;1924;48.078;11.516;2023-08-08T06:17:29;14.40;99.90
3818;DHT22;1924;48.078;11.516;2023-08-08T06:19:57;14.80;99.90
3818;DHT22;1924;48.078;11.516;2023-08-08T06:22:24;15.20;99.90
3818;DHT22;1924;48.078;11.516;2023-08-08T06:24:50;15.50;99.90
3818;DHT22;1924;48.078;11.516;2023-08-08T06:27:17;15.60;99.90
3818;DHT22;1924;48.078;11.516;2023-08-08T06:29:44;15.60;99.90
3818;DHT22;1924;48.078;11.516;2023-08-08T06:32:11;15.70;99.90
3818;DHT22;1924;48.078;11.516;2023-08-08T06:34:38;15.80;99.90
3818;DHT22;1924;48.078;11.516;2023-08-08T06:37:06;16.00;99.90
3818;DHT22;1924;48.078;11.516;2023-08-08T06:39:34;16.10;99.90
3818;DHT22;1924;48.078;11.516;2023-08-08T06:42:03;16.00;99.90
3818;DHT22;1924;48.078;11.516;2023-08-08T06:44:32;16.00;99.90
3818;DHT22;1924;48.078;11.516;2023-08-08T06:46:59;16.00;99.90
3818;DHT22;1924;48.078;11.516;2023-08-08T06:49:26;16.00;99.90
3818;DHT22;1924;48.078;11.516;2023-08-08T06:51:52;15.90;99.90
3818;DHT22;1924;48.078;11.516;2023-08-08T06:54:20;16.10;99.90
3818;DHT22;1924;48.078;11.516;2023-08-08T06:56:47;16.10;99.90
3818;DHT22;1924;48.078;11.516;2023-08-08T06:59:14;16.20;99.90
3818;DHT22;1924;48.078;11.516;2023-08-08T07:01:41;16.30;99.90
3818;DHT22;1924;48.078;11.516;2023-08-08T07:04:09;16.40;99.90
3818;DHT22;1924;48.078;11.516;2023-08-08T07:06:36;16.50;99.90
3818;DHT22;1924;48.078;11.516;2023-08-08T07:09:03;16.60;99.90
3818;DHT22;1924;48.078;11.516;2023-08-08T07:11:31;16.80;99.90
3818;DHT22;1924;48.078;11.516;2023-08-08T07:13:58;16.90;99.90
3818;DHT22;1924;48.078;11.516;2023-08-08T07:16:24;17.00;99.90
3818;DHT22;1924;48.078;11.516;2023-08-08T07:18:51;16.90;99.90
3818;DHT22;1924;48.078;11.516;2023-08-08T07:21:18;16.90;99.90
3818;DHT22;1924;48.078;11.516;2023-08-08T07:23:44;16.90;99.90
3818;DHT22;1924;48.078;11.516;2023-08-08T07:26:11;16.90;99.90
3818;DHT22;1924;48.078;11.516;2023-08-08T07:28:39;16.80;99.90
3818;DHT22;1924;48.078;11.516;2023-08-08T07:31:06;16.70;99.90
3818;DHT22;1924;48.078;11.516;2023-08-08T07:33:32;16.70;99.90
3818;DHT22;1924;48.078;11.516;2023-08-08T07:35:59;16.80;99.90
3818;DHT22;1924;48.078;11.516;2023-08-08T07:38:26;16.90;99.90
3818;DHT22;1924;48.078;11.516;2023-08-08T07:40:53;17.00;99.90
3818;DHT22;1924;48.078;11.516;2023-08-08T07:43:19;17.10;99.90
3818;DHT22;1924;48.078;11.516;2023-08-08T07:45:49;17.20;99.90
3818;DHT22;1924;48.078;11.516;2023-08-08T07:48:15;17.30;99.90
3818;DHT22;1924;48.078;11.516;2023-08-08T07:50:42;17.40;99.90
3818;DHT22;1924;48.078;11.516;2023-08-08T07:53:09;17.50;99.90
3818;DHT22;1924;48.078;11.516;2023-08-08T07:55:36;17.50;99.90
3818;DHT22;1924;48.078;11.516;2023-08-08T07:58:03;17.50;99.90
3818;DHT22;1924;48.078;11.516;2023-08-08T08:00:29;17.60;99.90
3818;DHT22;1924;48.078;11.516;2023-08-08T08:02:57;17.70;99.90
3818;DHT22;1924;48.078;11.516;2023-08-08T08:05:24;17.60;98.70
3818;DHT22;1924;48.078;11.516;2023-08-08T08:07:51;17.70;99.70
3818;DHT22;1924;48.078;11.516;2023-08-08T08:10:17;17.80;99.40
3818;DHT22;1924;48.078;11.516;2023-08-08T08:12:44;17.90;99.90
3818;DHT22;1924;48.078;11.516;2023-08-08T08:15:11;17.90;99.90
3818;DHT22;1924;48.078;11.516;2023-08-08T08:17:39;17.90;99.20
3818;DHT22;1924;48.078;11.516;2023-08-08T08:20:09;17.80;99.10
3818;DHT22;1924;48.078;11.516;2023-08-08T08:22:37;17.80;98.90
3818;DHT22;1924;48.078;11.516;2023-08-08T08:25:05;17.80;98.70
3818;DHT22;1924;48.078;11.516;2023-08-08T08:27:34;17.90;98.60
3818;DHT22;1924;48.078;11.516;2023-08-08T08:30:03;17.90;98.40
3818;DHT22;1924;48.078;11.516;2023-08-08T08:32:32;18.00;97.30
3818;DHT22;1924;48.078;11.516;2023-08-08T08:34:59;18.00;97.20
3818;DHT22;1924;48.078;11.516;2023-08-08T08:37:27;18.00;97.10
3818;DHT22;1924;48.078;11.516;2023-08-08T08:39:54;18.10;97.50
3818;DHT22;1924;48.078;11.516;2023-08-08T08:42:22;18.10;96.90
3818;DHT22;1924;48.078;11.516;2023-08-08T08:44:50;18.20;97.60
3818;DHT22;1924;48.078;11.516;2023-08-08T08:47:19;18.10;96.20
3818;DHT22;1924;48.078;11.516;2023-08-08T08:49:46;18.30;97.40
3818;DHT22;1924;48.078;11.516;2023-08-08T08:52:13;18.30;97.30
3818;DHT22;1924;48.078;11.516;2023-08-08T08:54:41;18.30;96.30
3818;DHT22;1924;48.078;11.516;2023-08-08T08:57:08;18.40;95.80
3818;DHT22;1924;48.078;11.516;2023-08-08T08:59:35;18.50;96.20
3818;DHT22;1924;48.078;11.516;2023-08-08T09:02:02;18.50;96.20
3818;DHT22;1924;48.078;11.516;2023-08-08T09:04:29;18.50;95.80
3818;DHT22;1924;48.078;11.516;2023-08-08T09:06:56;18.60;96.00
3818;DHT22;1924;48.078;11.516;2023-08-08T09:09:23;18.60;96.80
3818;DHT22;1924;48.078;11.516;2023-08-08T09:11:53;18.70;96.10
3818;DHT22;1924;48.078;11.516;2023-08-08T09:14:21;18.70;95.30
3818;DHT22;1924;48.078;11.516;2023-08-08T09:16:49;18.80;94.80
3818;DHT22;1924;48.078;11.516;2023-08-08T09:19:17;18.80;95.00
3818;DHT22;1924;48.078;11.516;2023-08-08T09:21:44;19.00;94.70
3818;DHT22;1924;48.078;11.516;2023-08-08T09:24:11;19.00;94.80
3818;DHT22;1924;48.078;11.516;2023-08-08T09:26:39;19.00;93.50
3818;DHT22;1924;48.078;11.516;2023-08-08T09:29:08;18.90;93.30
3818;DHT22;1924;48.078;11.516;2023-08-08T09:31:35;19.00;94.50
3818;DHT22;1924;48.078;11.516;2023-08-08T09:34:03;18.90;93.20
3818;DHT22;1924;48.078;11.516;2023-08-08T09:36:30;19.00;94.30
3818;DHT22;1924;48.078;11.516;2023-08-08T09:38:57;18.80;93.30
3818;DHT22;1924;48.078;11.516;2023-08-08T09:41:24;18.70;92.20
3818;DHT22;1924;48.078;11.516;2023-08-08T09:43:53;18.80;93.40
3818;DHT22;1924;48.078;11.516;2023-08-08T09:46:21;18.80;92.20
3818;DHT22;1924;48.078;11.516;2023-08-08T09:48:49;18.90;92.00
3818;DHT22;1924;48.078;11.516;2023-08-08T09:51:16;18.90;92.70
3818;DHT22;1924;48.078;11.516;2023-08-08T09:53:44;19.00;93.70
3818;DHT22;1924;48.078;11.516;2023-08-08T09:56:14;19.20;93.50
3818;DHT22;1924;48.078;11.516;2023-08-08T09:58:41;19.40;93.20
3818;DHT22;1924;48.078;11.516;2023-08-08T10:01:08;19.40;93.70
3818;DHT22;1924;48.078;11.516;2023-08-08T10:03:37;19.50;93.20
3818;DHT22;1924;48.078;11.516;2023-08-08T10:06:04;19.50;93.00
3818;DHT22;1924;48.078;11.516;2023-08-08T10:08:31;19.30;92.30
3818;DHT22;1924;48.078;11.516;2023-08-08T10:10:58;19.50;93.50
3818;DHT22;1924;48.078;11.516;2023-08-08T10:13:26;19.50;92.50
3818;DHT22;1924;48.078;11.516;2023-08-08T10:15:54;19.30;93.50
3818;DHT22;1924;48.078;11.516;2023-08-08T10:18:21;19.30;93.70
3818;DHT22;1924;48.078;11.516;2023-08-08T10:20:50;19.20;93.30
3818;DHT22;1924;48.078;11.516;2023-08-08T10:23:20;19.10;91.50
3818;DHT22;1924;48.078;11.516;2023-08-08T10:25:48;19.30;91.10
3818;DHT22;1924;48.078;11.516;2023-08-08T10:28:18;19.30;90.10
3818;DHT22;1924;48.078;11.516;2023-08-08T10:30:46;19.50;92.40
3818;DHT22;1924;48.078;11.516;2023-08-08T10:33:17;19.80;90.70
3818;DHT22;1924;48.078;11.516;2023-08-08T10:35:54;19.70;88.50
3818;DHT22;1924;48.078;11.516;2023-08-08T10:38:23;20.00;92.30
3818;DHT22;1924;48.078;11.516;2023-08-08T10:40:57;20.20;91.50
3818;DHT22;1924;48.078;11.516;2023-08-08T10:43:29;20.40;91.40
3818;DHT22;1924;48.078;11.516;2023-08-08T10:46:01;20.40;91.80
3818;DHT22;1924;48.078;11.516;2023-08-08T10:48:28;20.20;90.70
3818;DHT22;1924;48.078;11.516;2023-08-08T10:50:57;20.40;90.50
3818;DHT22;1924;48.078;11.516;2023-08-08T10:53:25;20.50;90.90
3818;DHT22;1924;48.078;11.516;2023-08-08T10:55:58;20.70;89.40
3818;DHT22;1924;48.078;11.516;2023-08-08T10:58:35;20.80;89.70
3818;DHT22;1924;48.078;11.516;2023-08-08T11:01:02;20.70;88.30
3818;DHT22;1924;48.078;11.516;2023-08-08T11:03:30;20.80;90.60
3818;DHT22;1924;48.078;11.516;2023-08-08T11:05:59;20.70;86.80
3818;DHT22;1924;48.078;11.516;2023-08-08T11:08:27;20.50;90.30
3818;DHT22;1924;48.078;11.516;2023-08-08T11:10:56;20.20;84.90
3818;DHT22;1924;48.078;11.516;2023-08-08T11:13:22;20.40;89.70
3818;DHT22;1924;48.078;11.516;2023-08-08T11:15:49;20.60;90.00
3818;DHT22;1924;48.078;11.516;2023-08-08T11:18:16;20.70;90.10
3818;DHT22;1924;48.078;11.516;2023-08-08T11:20:43;20.80;86.90
3818;DHT22;1924;48.078;11.516;2023-08-08T11:23:11;21.10;86.00
3818;DHT22;1924;48.078;11.516;2023-08-08T11:25:40;21.20;83.70
3818;DHT22;1924;48.078;11.516;2023-08-08T11:28:09;21.30;86.20
3818;DHT22;1924;48.078;11.516;2023-08-08T11:30:38;21.70;91.40
3818;DHT22;1924;48.078;11.516;2023-08-08T11:33:05;22.00;90.20
3818;DHT22;1924;48.078;11.516;2023-08-08T11:35:32;22.30;85.40
3818;DHT22;1924;48.078;11.516;2023-08-08T11:38:00;22.50;85.20
3818;DHT22;1924;48.078;11.516;2023-08-08T11:40:31;22.40;83.40
3818;DHT22;1924;48.078;11.516;2023-08-08T11:42:59;22.10;80.10
3818;DHT22;1924;48.078;11.516;2023-08-08T11:45:26;21.80;79.10
3818;DHT22;1924;48.078;11.516;2023-08-08T11:47:54;21.80;78.30
3818;DHT22;1924;48.078;11.516;2023-08-08T11:50:22;21.90;78.10
3818;DHT22;1924;48.078;11.516;2023-08-08T11:52:51;21.90;76.60
3818;DHT22;1924;48.078;11.516;2023-08-08T11:55:18;21.90;75.60
3818;DHT22;1924;48.078;11.516;2023-08-08T11:57:49;22.10;76.90
3818;DHT22;1924;48.078;11.516;2023-08-08T12:00:16;21.90;76.60
3818;DHT22;1924;48.078;11.516;2023-08-08T12:02:44;21.80;79.00
3818;DHT22;1924;48.078;11.516;2023-08-08T12:05:14;21.90;76.80
3818;DHT22;1924;48.078;11.516;2023-08-08T12:07:42;21.70;79.40
3818;DHT22;1924;48.078;11.516;2023-08-08T12:10:16;21.30;76.30
3818;DHT22;1924;48.078;11.516;2023-08-08T12:12:44;21.20;80.20
3818;DHT22;1924;48.078;11.516;2023-08-08T12:15:13;21.30;81.00
3818;DHT22;1924;48.078;11.516;2023-08-08T12:17:40;21.20;76.00
3818;DHT22;1924;48.078;11.516;2023-08-08T12:20:09;21.30;79.00
3818;DHT22;1924;48.078;11.516;2023-08-08T12:22:36;21.30;79.00
3818;DHT22;1924;48.078;11.516;2023-08-08T12:25:03;21.50;79.20
3818;DHT22;1924;48.078;11.516;2023-08-08T12:27:30;21.70;78.50
3818;DHT22;1924;48.078;11.516;2023-08-08T12:29:57;21.90;78.40
3818;DHT22;1924;48.078;11.516;2023-08-08T12:32:26;21.90;77.70
3818;DHT22;1924;48.078;11.516;2023-08-08T12:34:54;22.10;75.30
3818;DHT22;1924;48.078;11.516;2023-08-08T12:37:21;22.00;70.20
3818;DHT22;1924;48.078;11.516;2023-08-08T12:39:48;21.90;73.80
3818;DHT22;1924;48.078;11.516;2023-08-08T12:42:15;22.30;78.60
3818;DHT22;1924;48.078;11.516;2023-08-08T12:44:42;22.50;76.30
3818;DHT22;1924;48.078;11.516;2023-08-08T12:47:09;22.40;69.00
3818;DHT22;1924;48.078;11.516;2023-08-08T12:49:37;22.50;72.30
3818;DHT22;1924;48.078;11.516;2023-08-08T12:52:04;22.40;65.40
3818;DHT22;1924;48.078;11.516;2023-08-08T12:54:31;22.40;69.60
3818;DHT22;1924;48.078;11.516;2023-08-08T12:56:58;22.60;71.00
3818;DHT22;1924;48.078;11.516;2023-08-08T12:59:24;22.40;67.70
3818;DHT22;1924;48.078;11.516;2023-08-08T13:01:51;21.80;65.80
3818;DHT22;1924;48.078;11.516;2023-08-08T13:04:18;21.80;69.40
3818;DHT22;1924;48.078;11.516;2023-08-08T13:06:47;22.00;71.50
3818;DHT22;1924;48.078;11.516;2023-08-08T13:09:13;22.10;67.20
3818;DHT22;1924;48.078;11.516;2023-08-08T13:11:41;22.20;70.50
3818;DHT22;1924;48.078;11.516;2023-08-08T13:14:08;22.20;64.90
3818;DHT22;1924;48.078;11.516;2023-08-08T13:16:36;22.40;67.80
3818;DHT22;1924;48.078;11.516;2023-08-08T13:19:03;22.50;71.10
3818;DHT22;1924;48.078;11.516;2023-08-08T13:21:31;22.60;69.90
3818;DHT22;1924;48.078;11.516;2023-08-08T13:23:59;22.50;67.50
3818;DHT22;1924;48.078;11.516;2023-08-08T13:26:29;22.40;68.30
3818;DHT22;1924;48.078;11.516;2023-08-08T13:28:56;22.50;69.20
3818;DHT22;1924;48.078;11.516;2023-08-08T13:31:24;22.60;70.50
3818;DHT22;1924;48.078;11.516;2023-08-08T13:33:51;22.80;70.90
3818;DHT22;1924;48.078;11.516;2023-08-08T13:36:18;22.80;69.20
3818;DHT22;1924;48.078;11.516;2023-08-08T13:38:45;22.70;65.90
3818;DHT22;1924;48.078;11.516;2023-08-08T13:41:13;22.70;67.10
3818;DHT22;1924;48.078;11.516;2023-08-08T13:43:39;22.60;66.90
3818;DHT22;1924;48.078;11.516;2023-08-08T13:46:06;22.60;69.90
3818;DHT22;1924;48.078;11.516;2023-08-08T13:48:35;22.20;63.10
3818;DHT22;1924;48.078;11.516;2023-08-08T13:51:02;22.20;68.50
3818;DHT22;1924;48.078;11.516;2023-08-08T13:53:29;22.10;68.00
3818;DHT22;1924;48.078;11.516;2023-08-08T13:55:56;22.10;67.30
3818;DHT22;1924;48.078;11.516;2023-08-08T13:58:24;22.20;68.10
3818;DHT22;1924;48.078;11.516;2023-08-08T14:00:51;22.00;66.80
3818;DHT22;1924;48.078;11.516;2023-08-08T14:03:18;21.90;65.50
3818;DHT22;1924;48.078;11.516;2023-08-08T14:05:45;21.70;66.50
3818;DHT22;1924;48.078;11.516;2023-08-08T14:08:13;21.80;67.00
3818;DHT22;1924;48.078;11.516;2023-08-08T14:10:40;21.80;65.00
3818;DHT22;1924;48.078;11.516;2023-08-08T14:13:07;21.80;66.60
3818;DHT22;1924;48.078;11.516;2023-08-08T14:15:35;21.70;65.80
3818;DHT22;1924;48.078;11.516;2023-08-08T14:18:03;21.60;66.50
3818;DHT22;1924;48.078;11.516;2023-08-08T14:20:30;21.50;66.40
3818;DHT22;1924;48.078;11.516;2023-08-08T14:22:57;21.40;67.50
3818;DHT22;1924;48.078;11.516;2023-08-08T14:25:23;21.40;67.50
3818;DHT22;1924;48.078;11.516;2023-08-08T14:27:50;21.30;67.60
3818;DHT22;1924;48.078;11.516;2023-08-08T14:30:17;21.10;69.10
3818;DHT22;1924;48.078;11.516;2023-08-08T14:32:45;20.90;70.50
3818;DHT22;1924;48.078;11.516;2023-08-08T14:35:12;20.90;70.80
3818;DHT22;1924;48.078;11.516;2023-08-08T14:37:39;20.90;69.60
3818;DHT22;1924;48.078;11.516;2023-08-08T14:40:07;21.00;70.10
3818;DHT22;1924;48.078;11.516;2023-08-08T14:42:34;21.10;70.00
3818;DHT22;1924;48.078;11.516;2023-08-08T14:45:01;21.10;70.50
3818;DHT22;1924;48.078;11.516;2023-08-08T14:47:28;21.10;70.10
3818;DHT22;1924;48.078;11.516;2023-08-08T14:49:56;21.00;71.00
3818;DHT22;1924;48.078;11.516;2023-08-08T14:52:22;21.10;69.00
3818;DHT22;1924;48.078;11.516;2023-08-08T14:54:50;21.10;69.70
3818;DHT22;1924;48.078;11.516;2023-08-08T14:57:17;21.10;69.80
3818;DHT22;1924;48.078;11.516;2023-08-08T14:59:44;21.20;70.50
3818;DHT22;1924;48.078;11.516;2023-08-08T15:02:10;21.10;68.90
3818;DHT22;1924;48.078;11.516;2023-08-08T15:04:37;21.00;69.30
3818;DHT22;1924;48.078;11.516;2023-08-08T15:07:05;21.00;71.90
3818;DHT22;1924;48.078;11.516;2023-08-08T15:09:33;20.90;69.90
3818;DHT22;1924;48.078;11.516;2023-08-08T15:12:00;20.90;68.60
3818;DHT22;1924;48.078;11.516;2023-08-08T15:14:27;20.80;68.00
3818;DHT22;1924;48.078;11.516;2023-08-08T15:16:54;20.80;70.40
3818;DHT22;1924;48.078;11.516;2023-08-08T15:19:22;20.80;69.90
3818;DHT22;1924;48.078;11.516;2023-08-08T15:21:49;20.70;69.30
3818;DHT22;1924;48.078;11.516;2023-08-08T15:24:17;20.70;71.10
3818;DHT22;1924;48.078;11.516;2023-08-08T15:26:44;20.70;71.10
3818;DHT22;1924;48.078;11.516;2023-08-08T15:29:11;20.80;70.40
3818;DHT22;1924;48.078;11.516;2023-08-08T15:31:37;20.80;70.90
3818;DHT22;1924;48.078;11.516;2023-08-08T15:34:06;20.70;72.40
3818;DHT22;1924;48.078;11.516;2023-08-08T15:36:33;20.70;72.70
3818;DHT22;1924;48.078;11.516;2023-08-08T15:38:59;20.60;72.10
3818;DHT22;1924;48.078;11.516;2023-08-08T15:41:27;20.60;71.40
3818;DHT22;1924;48.078;11.516;2023-08-08T15:43:54;20.60;71.10
3818;DHT22;1924;48.078;11.516;2023-08-08T15:46:21;20.60;72.60
3818;DHT22;1924;48.078;11.516;2023-08-08T15:48:48;20.60;71.80
3818;DHT22;1924;48.078;11.516;2023-08-08T15:51:14;20.80;70.00
3818;DHT22;1924;48.078;11.516;2023-08-08T15:53:43;20.60;70.00
3818;DHT22;1924;48.078;11.516;2023-08-08T15:56:09;20.50;71.80
3818;DHT22;1924;48.078;11.516;2023-08-08T15:58:37;20.40;71.80
3818;DHT22;1924;48.078;11.516;2023-08-08T16:01:05;20.30;72.10
3818;DHT22;1924;48.078;11.516;2023-08-08T16:03:32;20.20;75.20
3818;DHT22;1924;48.078;11.516;2023-08-08T16:06:00;20.20;73.10
3818;DHT22;1924;48.078;11.516;2023-08-08T16:08:27;20.20;73.50
3818;DHT22;1924;48.078;11.516;2023-08-08T16:10:53;20.00;72.10
3818;DHT22;1924;48.078;11.516;2023-08-08T16:13:20;20.10;73.90
3818;DHT22;1924;48.078;11.516;2023-08-08T16:15:48;20.20;73.80
3818;DHT22;1924;48.078;11.516;2023-08-08T16:18:15;20.30;77.10
3818;DHT22;1924;48.078;11.516;2023-08-08T16:20:41;20.20;76.90
3818;DHT22;1924;48.078;11.516;2023-08-08T16:23:08;20.20;74.50
3818;DHT22;1924;48.078;11.516;2023-08-08T16:25:35;20.10;75.80
3818;DHT22;1924;48.078;11.516;2023-08-08T16:28:02;20.10;76.20
3818;DHT22;1924;48.078;11.516;2023-08-08T16:30:29;20.10;76.80
3818;DHT22;1924;48.078;11.516;2023-08-08T16:32:57;20.10;75.20
3818;DHT22;1924;48.078;11.516;2023-08-08T16:35:24;20.00;75.80
3818;DHT22;1924;48.078;11.516;2023-08-08T16:37:51;20.00;76.90
3818;DHT22;1924;48.078;11.516;2023-08-08T16:40:18;19.90;74.90
3818;DHT22;1924;48.078;11.516;2023-08-08T16:42:45;19.90;76.30
3818;DHT22;1924;48.078;11.516;2023-08-08T16:45:11;19.80;76.50
3818;DHT22;1924;48.078;11.516;2023-08-08T16:47:38;19.80;76.10
3818;DHT22;1924;48.078;11.516;2023-08-08T16:50:08;19.80;75.80
3818;DHT22;1924;48.078;11.516;2023-08-08T16:52:36;19.80;76.40
3818;DHT22;1924;48.078;11.516;2023-08-08T16:55:04;19.70;77.40
3818;DHT22;1924;48.078;11.516;2023-08-08T16:57:31;19.70;77.00
3818;DHT22;1924;48.078;11.516;2023-08-08T16:59:58;19.60;76.40
3818;DHT22;1924;48.078;11.516;2023-08-08T17:02:26;19.60;77.00
3818;DHT22;1924;48.078;11.516;2023-08-08T17:04:53;19.50;77.90
3818;DHT22;1924;48.078;11.516;2023-08-08T17:07:21;19.50;77.00
3818;DHT22;1924;48.078;11.516;2023-08-08T17:09:48;19.50;77.10
3818;DHT22;1924;48.078;11.516;2023-08-08T17:12:15;19.50;81.20
3818;DHT22;1924;48.078;11.516;2023-08-08T17:14:42;19.50;79.30
3818;DHT22;1924;48.078;11.516;2023-08-08T17:17:09;19.50;79.30
3818;DHT22;1924;48.078;11.516;2023-08-08T17:19:36;19.50;81.10
3818;DHT22;1924;48.078;11.516;2023-08-08T17:22:03;19.60;85.00
3818;DHT22;1924;48.078;11.516;2023-08-08T17:24:31;19.50;81.40
3818;DHT22;1924;48.078;11.516;2023-08-08T17:29:25;19.50;82.40
3818;DHT22;1924;48.078;11.516;2023-08-08T17:31:52;19.40;82.70
3818;DHT22;1924;48.078;11.516;2023-08-08T17:34:19;19.40;81.20
3818;DHT22;1924;48.078;11.516;2023-08-08T17:36:46;19.30;82.00
3818;DHT22;1924;48.078;11.516;2023-08-08T17:39:13;19.20;81.70
3818;DHT22;1924;48.078;11.516;2023-08-08T17:41:41;19.10;83.00
3818;DHT22;1924;48.078;11.516;2023-08-08T17:44:08;19.10;83.10
3818;DHT22;1924;48.078;11.516;2023-08-08T17:46:35;19.10;83.20
3818;DHT22;1924;48.078;11.516;2023-08-08T17:49:02;19.10;84.30
3818;DHT22;1924;48.078;11.516;2023-08-08T17:51:28;19.10;84.00
3818;DHT22;1924;48.078;11.516;2023-08-08T17:53:55;19.00;83.30
3818;DHT22;1924;48.078;11.516;2023-08-08T17:56:22;19.00;84.10
3818;DHT22;1924;48.078;11.516;2023-08-08T17:58:50;18.90;83.70
3818;DHT22;1924;48.078;11.516;2023-08-08T18:01:17;18.90;83.80
3818;DHT22;1924;48.078;11.516;2023-08-08T18:03:43;18.80;84.30
3818;DHT22;1924;48.078;11.516;2023-08-08T18:06:10;18.80;85.50
3818;DHT22;1924;48.078;11.516;2023-08-08T18:08:37;18.70;85.90
3818;DHT22;1924;48.078;11.516;2023-08-08T18:11:04;18.70;86.50
3818;DHT22;1924;48.078;11.516;2023-08-08T18:13:31;18.60;87.60
3818;DHT22;1924;48.078;11.516;2023-08-08T18:15:59;18.50;87.10
3818;DHT22;1924;48.078;11.516;2023-08-08T18:18:26;18.50;88.00
3818;DHT22;1924;48.078;11.516;2023-08-08T18:20:53;18.40;88.60
3818;DHT22;1924;48.078;11.516;2023-08-08T18:23:20;18.40;89.10
3818;DHT22;1924;48.078;11.516;2023-08-08T18:25:47;18.30;89.10
3818;DHT22;1924;48.078;11.516;2023-08-08T18:28:14;18.20;89.40
3818;DHT22;1924;48.078;11.516;2023-08-08T18:30:42;18.20;89.70
3818;DHT22;1924;48.078;11.516;2023-08-08T18:33:13;18.10;90.40
3818;DHT22;1924;48.078;11.516;2023-08-08T18:35:43;18.00;89.90
3818;DHT22;1924;48.078;11.516;2023-08-08T18:38:11;18.00;90.10
3818;DHT22;1924;48.078;11.516;2023-08-08T18:40:37;17.90;90.60
3818;DHT22;1924;48.078;11.516;2023-08-08T18:43:04;17.80;90.60
3818;DHT22;1924;48.078;11.516;2023-08-08T18:45:31;17.80;90.70
3818;DHT22;1924;48.078;11.516;2023-08-08T18:47:58;17.70;90.80
3818;DHT22;1924;48.078;11.516;2023-08-08T18:50:26;17.60;90.80
3818;DHT22;1924;48.078;11.516;2023-08-08T18:52:53;17.60;90.60
3818;DHT22;1924;48.078;11.516;2023-08-08T18:55:19;17.60;90.60
3818;DHT22;1924;48.078;11.516;2023-08-08T18:57:46;17.50;91.00
3818;DHT22;1924;48.078;11.516;2023-08-08T19:00:14;17.50;91.00
3818;DHT22;1924;48.078;11.516;2023-08-08T19:02:40;17.40;90.60
3818;DHT22;1924;48.078;11.516;2023-08-08T19:05:07;17.40;91.10
3818;DHT22;1924;48.078;11.516;2023-08-08T19:07:36;17.30;91.40